z

Olsztyn

Wyniki

Bieg 3

05.12.2015 Dystans: 5 km Rodzaj: Bieg główny
Pobierz wyniki:
Miejsce Nr Nazwisko Imię Miasto Klub Rocznik Kategoria Czas netto Czas brutto
1 365 ANDRUSZKIEWICZ-ĆWIK NATALIA Olsztyn 12TRI.PL DRUŻYNA WILKA 1985 K30 00:22:42 00:22:50
2 377 BRONAKOWSKA DOROTA Olsztyn 1982 K30 00:23:18 00:23:24
3 134 MAŃKOWSKA ANNA Olsztyn 12TRI.PL DRUŻYNA WILKA 1984 K30 00:23:19 00:23:26
4 113 LIPNICKA KATARZYNA Ostróda MTZ RENAULT ALCAR TEAM KOPEĆ 1982 K30 00:23:20 00:23:22
5 579 POPŁAWSKA SELENA Olsztyn TEAM KOPEĆ 1982 K30 00:23:49 00:24:01
6 44 BURANDT MAGDALENA Olszty 12TRI.PL DRUŻYNA WILKA 1980 K30 00:23:56 00:24:06
7 143 OLEJNIK BARBARA olsztyn 1980 K30 00:23:59 00:24:04
8 231 DĄBKOWSKA-WILCZEK MARTA Olsztyn 12TRI.PL DRUŻYNA WILKA 1983 K30 00:24:23 00:24:43
9 120 NICEWICZ MARTA Olsztyn 12TRI.PL DRUŻYNA WILKA 1985 K30 00:25:22 00:25:31
10 455 TUNIEWICZ AGNIESZKA Pasłęk KB BIEGAMBOLUBIĘ PASŁĘK 1976 K30 00:25:56 00:26:04
11 476 WOŹNIAK AGNIESZKA Olsztyn 1979 K30 00:26:09 00:26:22
12 482 KUCZYŃSKA KINGA Mrągowo 1985 K30 00:26:20 00:26:37
13 276 ANTCZAK EDYTA Ostróda OSTRÓDZKA GRUPA BIEGOWA 1981 K30 00:26:24 00:26:34
14 73 KUNDA EDYTA Gietrzwałd TEAM BEZ NAZWY/KW OLSZTYN 1980 K30 00:26:41 00:26:53
15 70 WILCZEWSKA MONIKA Olsztyn MONIKA 1984 K30 00:26:42 00:26:56
16 389 PODLEWSKA ANNA OLSZTYN FITNESS CLUB SYLWETKA 1980 K30 00:27:20 00:27:32
17 225 MOROZ KATARZYNA Olsztyn 1978 K30 00:27:40 00:27:53
18 149 WÓJCIK MONIKA Olsztyn TEAM KOPEĆ 1981 K30 00:28:12 00:28:28
19 229 PĘDZIWIATR JOANNA Olsztyn ZI SQUAD / PSZCZÓŁKOWSKI TEAM 1985 K30 00:28:14 00:28:30
20 558 KUREK MARIOLA Jonkowo PORBADY 1978 K30 00:28:33 00:28:57
21 94 PANKOWSKA KATARZYNA Iława ORKAMASTERS IŁAWA 1983 K30 00:28:55 00:29:12
22 571 JANKOWSKA PAULINA Olsztyn TEAM BEZ NAZWY/KW OLSZTYN 1985 K30 00:28:56 00:29:11
23 575 KAROLEWSKA ANNA Olsztyn 1985 K30 00:28:57 00:29:17
24 68 DADASIEWICZ MARZENA Olsztyn 1979 K30 00:29:04 00:29:22
25 443 GRĄDZKA IZABELA Barczewo BARCZEWO BIEGA 1981 K30 00:29:04 00:29:16
26 248 KRAWIEC AGNIESZKA Olsztyn SĄD OKRĘGOWY W OLSZTYNIE 1977 K30 00:30:26 00:30:47
27 527 MAŃKOWSKA-SALIK IZABELA Olsztyn 1978 K30 00:30:34 00:30:57
28 481 DOMAŃSKA EWA Olsztyn 1984 K30 00:30:47 00:31:08
29 410 BARTNIKOWSKA OLGA Olsztyn KINETIC TEAM 1977 K30 00:31:35 00:31:49
30 321 KALINOWSKA MARTA Olsztyn 1982 K30 00:32:18 00:32:38
31 522 LACHOWICZ EMILIA Olsztyn VEGE RUNNERS 1982 K30 00:32:19 00:32:34
32 392 POTERAŁA-PASZKO KATARZYNA Olsztyn FITNESS CLUB SYLWETKA 1983 K30 00:32:35 00:32:59
33 393 SZEKLICKA MARZENA Olsztyn FITNESS CLUB SYLWETKA 1981 K30 00:33:06 00:33:31
34 105 ONISK DOROTA Olsztyn 1985 K30 00:34:00 00:34:26
35 54 TWARDOWSKA MAGDALENA Olsztyn SĄSIEDZI Z BARCZA 1978 K30 00:35:30 00:35:55
36 174 KARWACKA-SAKOWICZ IWONA Olsztyn SĄD OKRĘGOWY W OLSZTYNIE 1984 K30 00:37:38 00:38:05
37 183 TYC ASIA Olsztyn SĄD OKRĘGOWY W OLSZTYNIE 1978 K30 00:39:01 00:39:28

Sponsor tytularny

Partnerzy generalni